Sharon Township, Ohio
Current Conditions -  °F | °C
As of 9:52 PM on Tuesday 25 Nov 2014 (Local Time) from KMFD Reporting Station
Overcast Overcast  
Wind Chill: 23°   Ceiling: 1400
Heat Index: 28°   Visibility: 10mi
Dew Point: 24°   Wind: 5mph
Humidity: 85%   Direction: 310°NW
Pressure: 30.18"   Gusts: NA
Location:  40.8848°N, 82.6515°W
Report Text: KMFD 260252Z 31004KT 10SM BKN014 OVC024 M02/M04 A3018 RMK AO2 SLP233 T10221044 51008
Loading
Personal Weather Stations






























Interactive Weather Map New forecast layout! Learn more

10-Day Weather Forecast

Advertisements
Track Severe Weather on mobile